createdAt,value
2019-05-21T00:01:23.440Z,98839.98
2019-05-21T00:03:51.856Z,98845.28
2019-05-21T00:06:20.252Z,98841.41
2019-05-21T00:08:48.660Z,98839.45
2019-05-21T00:11:17.064Z,98837.35
2019-05-21T00:13:45.486Z,98841.84
2019-05-21T00:16:13.884Z,98839.26
2019-05-21T00:18:42.652Z,98839.41
2019-05-21T00:21:11.063Z,98835.02
2019-05-21T00:23:39.454Z,98842.59
2019-05-21T00:26:07.955Z,98839.41
2019-05-21T00:28:38.034Z,98836.03
2019-05-21T00:31:43.262Z,98830.05
2019-05-21T00:34:48.682Z,98841.98
2019-05-21T00:37:53.492Z,98840.73
2019-05-21T00:40:58.148Z,98851.47
2019-05-21T00:43:44.611Z,98848.78
2019-05-21T00:46:13.027Z,98853.05
2019-05-21T00:48:41.567Z,98856.52
2019-05-21T00:51:09.989Z,98857.30
2019-05-21T00:53:38.409Z,98851.28
2019-05-21T00:56:06.809Z,98856.39
2019-05-21T00:58:35.218Z,98860.20
2019-05-21T01:01:03.637Z,98852.72
2019-05-21T01:03:32.167Z,98855.84
2019-05-21T01:06:00.599Z,98860.84
2019-05-21T01:08:28.965Z,98854.81
2019-05-21T01:10:57.371Z,98857.30
2019-05-21T01:13:25.779Z,98858.78
2019-05-21T01:15:54.494Z,98857.86
2019-05-21T01:18:22.914Z,98858.73
2019-05-21T01:20:51.432Z,98846.41
2019-05-21T01:23:19.852Z,98853.98
2019-05-21T01:25:48.255Z,98857.17
2019-05-21T01:28:16.692Z,98855.95
2019-05-21T01:30:45.088Z,98856.23
2019-05-21T01:33:13.483Z,98861.26
2019-05-21T01:35:42.229Z,98861.90
2019-05-21T01:38:10.629Z,98861.59
2019-05-21T01:40:39.304Z,98861.08
2019-05-21T01:43:07.720Z,98863.45
2019-05-21T01:45:36.129Z,98863.93
2019-05-21T01:48:04.541Z,98863.58
2019-05-21T01:50:32.943Z,98856.20
2019-05-21T01:53:01.346Z,98862.61
2019-05-21T01:55:29.818Z,98859.48
2019-05-21T01:57:58.245Z,98863.94
2019-05-21T02:00:26.625Z,98867.23
2019-05-21T02:02:55.056Z,98874.47
2019-05-21T02:05:32.562Z,98868.13
2019-05-21T02:07:53.635Z,98864.28
2019-05-21T02:10:22.061Z,98858.41
2019-05-21T02:12:50.470Z,98853.42
2019-05-21T02:15:18.957Z,98850.45
2019-05-21T02:17:47.434Z,98849.67
2019-05-21T02:20:15.852Z,98854.97
2019-05-21T02:22:44.247Z,98859.61
2019-05-21T02:25:12.828Z,98851.18
2019-05-21T02:27:41.380Z,98858.63
2019-05-21T02:30:10.573Z,98860.94
2019-05-21T02:32:38.970Z,98856.05
2019-05-21T02:35:07.961Z,98852.57
2019-05-21T02:37:36.476Z,98858.82
2019-05-21T02:40:07.312Z,98857.09
2019-05-21T02:42:36.026Z,98859.89
2019-05-21T02:45:06.692Z,98855.00
2019-05-21T02:47:35.101Z,98854.94
2019-05-21T02:50:04.746Z,98852.20
2019-05-21T02:52:33.153Z,98854.44
2019-05-21T02:55:01.701Z,98847.05
2019-05-21T02:57:42.253Z,98858.47
2019-05-21T03:00:30.983Z,98855.70
2019-05-21T03:03:01.107Z,98851.20
2019-05-21T03:05:29.737Z,98858.94
2019-05-21T03:07:58.228Z,98848.70
2019-05-21T03:10:28.270Z,98853.15
2019-05-21T03:12:56.665Z,98862.95
2019-05-21T03:15:25.082Z,98860.30
2019-05-21T03:17:53.483Z,98861.44
2019-05-21T03:20:22.676Z,98864.06
2019-05-21T03:22:51.070Z,98863.20
2019-05-21T03:25:19.483Z,98872.11
2019-05-21T03:27:47.887Z,98869.85
2019-05-21T03:30:16.576Z,98873.70
2019-05-21T03:32:45.007Z,98876.19
2019-05-21T03:35:13.569Z,98872.66
2019-05-21T03:37:41.998Z,98872.16
2019-05-21T03:40:10.709Z,98873.83
2019-05-21T03:42:39.106Z,98870.01
2019-05-21T03:45:08.514Z,98870.91
2019-05-21T03:47:37.026Z,98871.33
2019-05-21T03:50:07.114Z,98868.72
2019-05-21T03:52:35.573Z,98877.09
2019-05-21T03:55:04.627Z,98875.58
2019-05-21T03:57:33.046Z,98882.14
2019-05-21T04:00:01.439Z,98877.18
2019-05-21T04:02:29.858Z,98881.87
2019-05-21T04:04:58.252Z,98890.94
2019-05-21T04:07:26.681Z,98889.31
2019-05-21T04:09:55.084Z,98890.58
2019-05-21T04:12:23.510Z,98895.37
2019-05-21T04:14:59.564Z,98897.64
2019-05-21T04:17:34.389Z,98896.37
2019-05-21T04:19:59.745Z,98890.58
2019-05-21T04:22:28.177Z,98899.94
2019-05-21T04:24:56.577Z,98897.03
2019-05-21T04:27:24.978Z,98895.79
2019-05-21T04:29:53.393Z,98895.69
2019-05-21T04:32:21.816Z,98905.13
2019-05-21T04:34:50.210Z,98908.09
2019-05-21T04:37:18.641Z,98918.42
2019-05-21T04:39:47.082Z,98922.68
2019-05-21T04:42:15.468Z,98919.41
2019-05-21T04:44:43.869Z,98922.36
2019-05-21T04:47:12.290Z,98923.19
2019-05-21T04:49:40.725Z,98936.23
2019-05-21T04:52:09.114Z,98931.50
2019-05-21T04:54:37.579Z,98930.72
2019-05-21T04:57:06.019Z,98939.50
2019-05-21T04:59:34.419Z,98944.03
2019-05-21T05:02:02.836Z,98937.12
2019-05-21T05:04:31.261Z,98945.20
2019-05-21T05:06:59.687Z,98941.75
2019-05-21T05:09:28.089Z,98944.50
2019-05-21T05:11:56.498Z,98951.27
2019-05-21T05:14:24.959Z,98949.05
2019-05-21T05:16:53.331Z,98949.87
2019-05-21T05:19:21.754Z,98955.58
2019-05-21T05:21:50.175Z,98955.66
2019-05-21T05:24:18.590Z,98957.89
2019-05-21T05:26:46.978Z,98959.59
2019-05-21T05:29:15.396Z,98965.45
2019-05-21T05:31:43.804Z,98963.97
2019-05-21T05:34:12.228Z,98967.64
2019-05-21T05:36:40.640Z,98963.56
2019-05-21T05:39:09.450Z,98969.64
2019-05-21T05:41:37.855Z,98973.07
2019-05-21T05:44:06.262Z,98968.47
2019-05-21T05:46:34.669Z,98964.98
2019-05-21T05:49:10.483Z,98969.78
2019-05-21T05:51:38.883Z,98973.09
2019-05-21T05:54:07.882Z,98973.92
2019-05-21T05:56:37.043Z,98966.19
2019-05-21T05:59:05.543Z,98979.55
2019-05-21T06:01:34.635Z,98975.34
2019-05-21T06:04:03.025Z,98987.53
2019-05-21T06:06:31.453Z,98978.88
2019-05-21T06:08:59.876Z,98984.27
2019-05-21T06:11:28.273Z,98991.33
2019-05-21T06:13:56.701Z,98988.98
2019-05-21T06:16:25.106Z,98991.93
2019-05-21T06:18:53.530Z,98996.64
2019-05-21T06:21:21.929Z,98995.02
2019-05-21T06:23:50.357Z,98999.98
2019-05-21T06:26:18.764Z,99005.84
2019-05-21T06:28:47.179Z,98999.94
2019-05-21T06:31:15.580Z,99001.75
2019-05-21T06:33:43.985Z,99004.39
2019-05-21T06:36:13.351Z,98997.80
2019-05-21T06:38:41.749Z,99003.23
2019-05-21T06:41:10.202Z,99009.85
2019-05-21T06:43:38.595Z,99004.71
2019-05-21T06:46:07.002Z,99009.61
2019-05-21T06:48:35.410Z,99011.92
2019-05-21T06:51:03.953Z,99017.59
2019-05-21T06:53:32.344Z,99016.42
2019-05-21T06:56:00.760Z,99019.06
2019-05-21T06:58:29.185Z,99027.66
2019-05-21T07:00:57.601Z,99029.19
2019-05-21T07:03:26.118Z,99031.66
2019-05-21T07:05:58.687Z,99038.91
2019-05-21T07:08:34.211Z,99027.52
2019-05-21T07:10:54.831Z,99029.92
2019-05-21T07:13:23.220Z,99035.81
2019-05-21T07:15:51.646Z,99035.34
2019-05-21T07:18:20.068Z,99041.70
2019-05-21T07:20:48.472Z,99041.29
2019-05-21T07:23:16.871Z,99047.81
2019-05-21T07:25:45.361Z,99038.13
2019-05-21T07:28:13.769Z,99046.92
2019-05-21T07:30:42.170Z,99051.98
2019-05-21T07:33:10.938Z,99057.57
2019-05-21T07:35:39.485Z,99052.81
2019-05-21T07:38:07.893Z,99058.88
2019-05-21T07:40:36.297Z,99057.09
2019-05-21T07:43:04.718Z,99057.32
2019-05-21T07:45:33.111Z,99060.47
2019-05-21T07:48:01.538Z,99062.16
2019-05-21T07:50:29.937Z,99063.33
2019-05-21T07:52:58.362Z,99063.95
2019-05-21T07:55:26.753Z,99073.89
2019-05-21T07:57:55.173Z,99076.54
2019-05-21T08:00:24.012Z,99080.33
2019-05-21T08:02:52.439Z,99075.12
2019-05-21T08:05:20.835Z,99078.95
2019-05-21T08:07:49.248Z,99074.97
2019-05-21T08:10:17.725Z,99073.89
2019-05-21T08:12:46.410Z,99074.36
2019-05-21T08:15:15.546Z,99075.22
2019-05-21T08:17:43.963Z,99079.14
2019-05-21T08:20:13.525Z,99077.15
2019-05-21T08:22:41.942Z,99075.83
2019-05-21T08:25:14.411Z,99089.84
2019-05-21T08:27:41.222Z,99092.20
2019-05-21T08:30:10.470Z,99098.11
2019-05-21T08:32:38.876Z,99087.28
2019-05-21T08:35:08.651Z,99100.56
2019-05-21T08:37:37.080Z,99092.97
2019-05-21T08:40:07.110Z,99098.52
2019-05-21T08:42:35.542Z,99088.08
2019-05-21T08:45:08.459Z,99097.25
2019-05-21T08:47:37.046Z,99103.23
2019-05-21T08:50:08.688Z,99088.65
2019-05-21T08:52:37.356Z,99090.14
2019-05-21T08:55:07.474Z,99100.94
2019-05-21T08:57:35.972Z,99099.43
2019-05-21T09:00:10.395Z,99103.73
2019-05-21T09:02:38.819Z,99100.73
2019-05-21T09:05:07.754Z,99114.05
2019-05-21T09:07:36.365Z,99119.86
2019-05-21T09:10:09.481Z,99121.38
2019-05-21T09:12:37.905Z,99124.87
2019-05-21T09:15:08.053Z,99131.80
2019-05-21T09:17:36.800Z,99131.01
2019-05-21T09:20:11.010Z,99142.13
2019-05-21T09:22:39.507Z,99143.89
2019-05-21T09:25:09.194Z,99149.02
2019-05-21T09:27:38.379Z,99151.99
2019-05-21T09:30:12.548Z,99150.47
2019-05-21T09:32:40.953Z,99151.09
2019-05-21T09:35:10.207Z,99139.87
2019-05-21T09:37:38.780Z,99145.00
2019-05-21T09:40:08.394Z,99151.91
2019-05-21T09:42:37.059Z,99147.31
2019-05-21T09:45:07.399Z,99146.69
2019-05-21T09:47:35.982Z,99154.50
2019-05-21T09:50:07.683Z,99150.09
2019-05-21T09:52:36.172Z,99155.87
2019-05-21T09:55:05.723Z,99158.72
2019-05-21T09:57:52.471Z,99155.02
2019-05-21T10:00:31.853Z,99164.20
2019-05-21T10:03:00.991Z,99170.92
2019-05-21T10:05:29.475Z,99173.80
2019-05-21T10:07:57.878Z,99168.48
2019-05-21T10:10:26.433Z,99180.97
2019-05-21T10:12:54.841Z,99176.39
2019-05-21T10:15:23.271Z,99176.38
2019-05-21T10:17:51.676Z,99179.02
2019-05-21T10:20:20.093Z,99178.55
2019-05-21T10:22:48.513Z,99185.11
2019-05-21T10:25:16.913Z,99190.23
2019-05-21T10:27:45.317Z,99189.84
2019-05-21T10:30:14.180Z,99194.38
2019-05-21T10:32:42.568Z,99191.08
2019-05-21T10:35:11.326Z,99192.00
2019-05-21T10:37:53.948Z,99190.43
2019-05-21T10:40:10.266Z,99195.06
2019-05-21T10:42:38.618Z,99192.00
2019-05-21T10:45:07.260Z,99194.59
2019-05-21T10:47:35.691Z,99192.82
2019-05-21T10:50:07.057Z,99206.78
2019-05-21T10:52:35.484Z,99194.17
2019-05-21T10:55:06.062Z,99204.78
2019-05-21T10:57:34.498Z,99205.61
2019-05-21T11:00:05.522Z,99202.14
2019-05-21T11:02:50.670Z,99207.23
2019-05-21T11:05:28.794Z,99204.88
2019-05-21T11:07:56.886Z,99217.38
2019-05-21T11:10:25.303Z,99210.53
2019-05-21T11:12:53.711Z,99208.73
2019-05-21T11:15:22.328Z,99213.64
2019-05-21T11:18:09.237Z,99207.09
2019-05-21T11:20:21.001Z,99213.19
2019-05-21T11:22:49.675Z,99210.70
2019-05-21T11:25:18.080Z,99221.68
2019-05-21T11:27:46.777Z,99218.16
2019-05-21T11:30:15.787Z,99218.83
2019-05-21T11:32:47.680Z,99221.19
2019-05-21T11:35:14.570Z,99235.59
2019-05-21T11:37:42.991Z,99239.73
2019-05-21T11:40:12.023Z,99226.82
2019-05-21T11:42:40.518Z,99230.08
2019-05-21T11:45:09.653Z,99237.58
2019-05-21T11:47:38.612Z,99237.25
2019-05-21T11:50:08.653Z,99244.03
2019-05-21T11:52:37.091Z,99239.52
2019-05-21T11:55:05.923Z,99236.55
2019-05-21T11:57:34.352Z,99233.12
2019-05-21T12:00:02.989Z,99240.84
2019-05-21T12:02:31.411Z,99247.45
2019-05-21T12:04:59.811Z,99237.17
2019-05-21T12:07:28.231Z,99240.88
2019-05-21T12:09:56.640Z,99251.30
2019-05-21T12:12:25.048Z,99245.68
2019-05-21T12:14:53.451Z,99248.15
2019-05-21T12:17:21.867Z,99251.55
2019-05-21T12:19:50.278Z,99257.03
2019-05-21T12:22:18.715Z,99259.80
2019-05-21T12:24:47.114Z,99256.81
2019-05-21T12:27:15.616Z,99254.33
2019-05-21T12:29:44.013Z,99257.62
2019-05-21T12:32:12.408Z,99257.88
2019-05-21T12:34:40.822Z,99259.95
2019-05-21T12:37:09.265Z,99263.30
2019-05-21T12:39:37.676Z,99267.92
2019-05-21T12:42:06.178Z,99266.52
2019-05-21T12:44:34.701Z,99265.78
2019-05-21T12:47:03.126Z,99265.68
2019-05-21T12:49:31.569Z,99268.67
2019-05-21T12:51:59.971Z,99274.44
2019-05-21T12:54:28.387Z,99270.11
2019-05-21T12:56:56.782Z,99272.44
2019-05-21T12:59:25.469Z,99280.94
2019-05-21T13:01:53.951Z,99265.60
2019-05-21T13:04:22.395Z,99273.41
2019-05-21T13:06:50.801Z,99273.06
2019-05-21T13:09:32.355Z,99273.69
2019-05-21T13:11:49.542Z,99277.30
2019-05-21T13:14:19.043Z,99279.84
2019-05-21T13:16:47.550Z,99276.42
2019-05-21T13:19:15.960Z,99279.04
2019-05-21T13:21:44.409Z,99279.77
2019-05-21T13:24:12.810Z,99276.79
2019-05-21T13:26:41.204Z,99279.68
2019-05-21T13:29:09.633Z,99280.20
2019-05-21T13:31:38.090Z,99285.13
2019-05-21T13:34:06.651Z,99289.01
2019-05-21T13:36:35.364Z,99280.17
2019-05-21T13:39:05.713Z,99291.55
2019-05-21T13:41:34.115Z,99287.84
2019-05-21T13:44:02.575Z,99283.99
2019-05-21T13:46:30.983Z,99291.97
2019-05-21T13:48:59.421Z,99289.71
2019-05-21T13:51:27.822Z,99293.66
2019-05-21T13:53:56.750Z,99295.18
2019-05-21T13:56:25.160Z,99290.08
2019-05-21T13:58:53.919Z,99289.23
2019-05-21T14:01:39.320Z,99291.73
2019-05-21T14:03:52.744Z,99293.46
2019-05-21T14:06:21.235Z,99296.27
2019-05-21T14:08:49.659Z,99306.29
2019-05-21T14:11:18.069Z,99302.02
2019-05-21T14:13:46.470Z,99302.91
2019-05-21T14:16:14.882Z,99299.27
2019-05-21T14:18:43.297Z,99292.97
2019-05-21T14:21:11.720Z,99290.98
2019-05-21T14:23:40.143Z,99302.97
2019-05-21T14:26:08.632Z,99308.91
2019-05-21T14:28:37.071Z,99301.00
2019-05-21T14:31:05.572Z,99310.10
2019-05-21T14:33:34.071Z,99307.45
2019-05-21T14:36:02.547Z,99311.84
2019-05-21T14:38:30.958Z,99313.98
2019-05-21T14:40:59.362Z,99312.12
2019-05-21T14:43:28.107Z,99318.94
2019-05-21T14:45:56.523Z,99314.70
2019-05-21T14:48:24.945Z,99319.59
2019-05-21T14:50:53.590Z,99319.72
2019-05-21T14:53:22.356Z,99322.30
2019-05-21T14:55:50.776Z,99327.22
2019-05-21T14:58:19.222Z,99330.73
2019-05-21T15:00:47.665Z,99331.63
2019-05-21T15:03:24.744Z,99331.63
2019-05-21T15:05:46.217Z,99333.38
2019-05-21T15:08:14.630Z,99333.45
2019-05-21T15:10:48.380Z,99334.76
2019-05-21T15:13:13.160Z,99334.72
2019-05-21T15:15:41.564Z,99338.76
2019-05-21T15:18:10.045Z,99338.15
2019-05-21T15:20:45.863Z,99333.30
2019-05-21T15:23:14.325Z,99341.05
2019-05-21T15:25:42.798Z,99336.91
2019-05-21T15:28:11.215Z,99341.36
2019-05-21T15:30:39.615Z,99345.48
2019-05-21T15:33:08.356Z,99348.53
2019-05-21T15:35:36.757Z,99350.36
2019-05-21T15:38:05.168Z,99360.09
2019-05-21T15:40:33.558Z,99358.67
2019-05-21T15:43:01.986Z,99356.13
2019-05-21T15:45:30.375Z,99357.09
2019-05-21T15:47:58.785Z,99358.07
2019-05-21T15:50:27.179Z,99363.75
2019-05-21T15:52:55.620Z,99358.95
2019-05-21T15:55:24.020Z,99359.30
2019-05-21T15:57:52.432Z,99364.84
2019-05-21T16:00:23.736Z,99360.72
2019-05-21T16:02:52.149Z,99361.63
2019-05-21T16:05:20.981Z,99361.70
2019-05-21T16:07:49.396Z,99361.07
2019-05-21T16:10:17.950Z,99358.77
2019-05-21T16:12:46.418Z,99363.53
2019-05-21T16:15:15.001Z,99363.03
2019-05-21T16:17:43.410Z,99371.03
2019-05-21T16:20:12.342Z,99369.84
2019-05-21T16:22:40.832Z,99370.02
2019-05-21T16:25:09.546Z,99373.11
2019-05-21T16:27:37.941Z,99371.70
2019-05-21T16:30:08.192Z,99379.34
2019-05-21T16:32:36.834Z,99379.09
2019-05-21T16:35:08.895Z,99377.29
2019-05-21T16:37:37.361Z,99375.59
2019-05-21T16:40:07.502Z,99372.97
2019-05-21T16:42:35.893Z,99372.89
2019-05-21T16:45:08.978Z,99374.13
2019-05-21T16:47:45.814Z,99378.41
2019-05-21T16:50:08.881Z,99379.62
2019-05-21T16:52:38.089Z,99384.42
2019-05-21T16:55:07.867Z,99383.94
2019-05-21T16:57:36.225Z,99383.41
2019-05-21T17:00:07.740Z,99376.47
2019-05-21T17:02:36.395Z,99388.71
2019-05-21T17:05:06.439Z,99382.73
2019-05-21T17:07:35.780Z,99396.27
2019-05-21T17:10:06.519Z,99395.14
2019-05-21T17:12:35.236Z,99398.53
2019-05-21T17:15:05.740Z,99404.17
2019-05-21T17:17:34.133Z,99399.81
2019-05-21T17:20:02.890Z,99403.05
2019-05-21T17:22:31.493Z,99411.03
2019-05-21T17:24:59.973Z,99410.08
2019-05-21T17:27:28.448Z,99415.70
2019-05-21T17:29:56.870Z,99409.56
2019-05-21T17:32:25.339Z,99420.03
2019-05-21T17:34:53.767Z,99415.78
2019-05-21T17:37:22.616Z,99422.95
2019-05-21T17:39:51.057Z,99417.14
2019-05-21T17:42:19.501Z,99414.53
2019-05-21T17:44:47.963Z,99427.29
2019-05-21T17:47:16.564Z,99426.92
2019-05-21T17:49:44.949Z,99431.53
2019-05-21T17:52:13.410Z,99427.95
2019-05-21T17:54:55.726Z,99431.95
2019-05-21T17:57:12.023Z,99430.30
2019-05-21T17:59:40.512Z,99430.95
2019-05-21T18:02:11.082Z,99427.59
2019-05-21T18:04:39.486Z,99431.39
2019-05-21T18:07:08.737Z,99436.67
2019-05-21T18:09:37.800Z,99438.02
2019-05-21T18:12:07.384Z,99434.89
2019-05-21T18:14:36.983Z,99438.38
2019-05-21T18:17:05.563Z,99436.64
2019-05-21T18:19:35.398Z,99435.28
2019-05-21T18:22:06.196Z,99450.74
2019-05-21T18:24:34.832Z,99447.74
2019-05-21T18:27:03.323Z,99452.28
2019-05-21T18:29:31.805Z,99449.54
2019-05-21T18:32:00.408Z,99455.92
2019-05-21T18:34:29.310Z,99456.36
2019-05-21T18:36:57.726Z,99460.91
2019-05-21T18:39:28.027Z,99457.77
2019-05-21T18:41:56.443Z,99459.70
2019-05-21T18:44:24.912Z,99471.38
2019-05-21T18:46:53.314Z,99468.30
2019-05-21T18:49:21.705Z,99471.92
2019-05-21T18:51:50.129Z,99478.09
2019-05-21T18:54:18.520Z,99475.16
2019-05-21T18:56:46.921Z,99478.86
2019-05-21T18:59:15.338Z,99485.73
2019-05-21T19:01:43.761Z,99483.27
2019-05-21T19:04:12.239Z,99487.41
2019-05-21T19:06:40.669Z,99488.77
2019-05-21T19:09:09.498Z,99493.67
2019-05-21T19:11:37.883Z,99496.95
2019-05-21T19:14:07.119Z,99494.82
2019-05-21T19:16:35.523Z,99496.71
2019-05-21T19:19:03.990Z,99500.19
2019-05-21T19:21:32.405Z,99505.09
2019-05-21T19:24:00.809Z,99506.58
2019-05-21T19:26:29.209Z,99509.04
2019-05-21T19:28:57.945Z,99511.28
2019-05-21T19:31:26.341Z,99515.84
2019-05-21T19:33:54.751Z,99514.94
2019-05-21T19:36:23.613Z,99518.19
2019-05-21T19:38:52.016Z,99519.19
2019-05-21T19:41:20.413Z,99519.80
2019-05-21T19:43:48.821Z,99531.79
2019-05-21T19:46:17.215Z,99531.79
2019-05-21T19:48:45.638Z,99537.64
2019-05-21T19:51:14.091Z,99544.02
2019-05-21T19:53:42.487Z,99534.44
2019-05-21T19:56:10.969Z,99544.70
2019-05-21T19:58:39.366Z,99535.52
2019-05-21T20:01:09.463Z,99547.52
2019-05-21T20:03:38.347Z,99553.36
2019-05-21T20:06:07.644Z,99560.56
2019-05-21T20:08:36.397Z,99560.56
2019-05-21T20:11:05.763Z,99555.41
2019-05-21T20:13:34.444Z,99566.17
2019-05-21T20:16:03.099Z,99561.85
2019-05-21T20:18:31.669Z,99560.75
2019-05-21T20:21:01.024Z,99564.91
2019-05-21T20:23:29.600Z,99566.81
2019-05-21T20:25:58.457Z,99563.52
2019-05-21T20:28:27.296Z,99569.91
2019-05-21T20:30:55.865Z,99572.17
2019-05-21T20:33:24.814Z,99573.08
2019-05-21T20:35:53.874Z,99576.25
2019-05-21T20:38:23.599Z,99574.55
2019-05-21T20:40:53.714Z,99576.41
2019-05-21T20:43:23.153Z,99574.27
2019-05-21T20:45:51.734Z,99575.20
2019-05-21T20:48:22.204Z,99581.00
2019-05-21T20:50:50.673Z,99576.17
2019-05-21T20:53:19.634Z,99585.50
2019-05-21T20:55:48.202Z,99579.34
2019-05-21T20:58:16.669Z,99587.35
2019-05-21T21:00:46.804Z,99583.41
2019-05-21T21:03:15.832Z,99586.12
2019-05-21T21:05:44.881Z,99587.04
2019-05-21T21:08:15.109Z,99589.20
2019-05-21T21:10:43.611Z,99583.06
2019-05-21T21:13:13.899Z,99586.61
2019-05-21T21:15:43.119Z,99590.19
2019-05-21T21:18:11.871Z,99589.84
2019-05-21T21:20:40.277Z,99584.60
2019-05-21T21:23:08.851Z,99583.75
2019-05-21T21:25:37.400Z,99586.88
2019-05-21T21:28:06.259Z,99571.91
2019-05-21T21:30:36.335Z,99571.91
2019-05-21T21:33:05.432Z,99589.93
2019-05-21T21:35:34.616Z,99589.50
2019-05-21T21:38:04.949Z,99590.35
2019-05-21T21:40:33.410Z,99589.04
2019-05-21T21:43:02.023Z,99587.30
2019-05-21T21:45:30.485Z,99590.83
2019-05-21T21:47:58.876Z,99596.11
2019-05-21T21:50:28.430Z,99594.80
2019-05-21T21:52:56.961Z,99600.97
2019-05-21T21:55:25.424Z,99599.18
2019-05-21T21:57:53.840Z,99600.92
2019-05-21T22:00:31.171Z,99598.76
2019-05-21T22:03:02.882Z,99607.18
2019-05-21T22:05:34.275Z,99606.77
2019-05-21T22:08:02.671Z,99608.08
2019-05-21T22:10:31.548Z,99610.74
2019-05-21T22:12:59.964Z,99605.91
2019-05-21T22:15:28.449Z,99607.65
2019-05-21T22:17:56.918Z,99611.62
2019-05-21T22:20:25.398Z,99602.81
2019-05-21T22:22:54.036Z,99608.09
2019-05-21T22:25:22.795Z,99611.15
2019-05-21T22:27:51.384Z,99608.06
2019-05-21T22:30:20.817Z,99608.94
2019-05-21T22:32:49.295Z,99608.52
2019-05-21T22:35:18.323Z,99607.19
2019-05-21T22:37:47.309Z,99607.20
2019-05-21T22:40:15.703Z,99603.66
2019-05-21T22:42:44.532Z,99603.63
2019-05-21T22:45:13.182Z,99599.25
2019-05-21T22:47:41.584Z,99603.64
2019-05-21T22:50:10.895Z,99600.09
2019-05-21T22:52:39.298Z,99598.36
2019-05-21T22:55:08.225Z,99608.89
2019-05-21T22:57:36.709Z,99601.37
2019-05-21T23:00:07.700Z,99598.29
2019-05-21T23:02:38.042Z,99598.29
2019-05-21T23:05:07.647Z,99598.36
2019-05-21T23:07:36.120Z,99595.71
2019-05-21T23:10:07.122Z,99596.16
2019-05-21T23:12:35.938Z,99598.30
2019-05-21T23:15:06.069Z,99596.94
2019-05-21T23:17:34.645Z,99592.09
2019-05-21T23:20:05.327Z,99594.75
2019-05-21T23:22:33.728Z,99589.48
2019-05-21T23:25:02.565Z,99590.81
2019-05-21T23:27:31.624Z,99589.45
2019-05-21T23:30:01.213Z,99597.80
2019-05-21T23:32:29.668Z,99592.06
2019-05-21T23:34:58.860Z,99593.75
2019-05-21T23:37:28.684Z,99593.71
2019-05-21T23:39:57.619Z,99592.73
2019-05-21T23:42:29.858Z,99598.81
2019-05-21T23:44:57.586Z,99603.19
2019-05-21T23:47:26.845Z,99604.48
2019-05-21T23:49:55.264Z,99607.58
2019-05-21T23:52:25.165Z,99603.66
2019-05-21T23:54:53.557Z,99610.69
2019-05-21T23:57:28.416Z,99610.22
2019-05-21T23:59:57.034Z,99612.00
